Aérodrome :







RETROUVEZ-NOUS SUR...

 
LOGIN :

S'inscrire | Disclaimer

   EN    FR    IT 

 









Légende :    VFR   VFR Marginal   IFR   IFR Intensif   IFR Très Intensif
Visi : 
Plafond : 
>= 8 km
>= 3000ft
5 à 8 km
1000 à 3000 ft
1500m à 5 km
500 à 1000 ft
800 à 1500m
200 à 500 ft
< 800m
< 200 ft
Symboles :   Orages  Brouillard  Fortes neiges  Fortes précipitations  Vent > 20 kt






- Altitude de l'aérodrome : 54 ft
- Code IATA : BEL


SBBE - Val de Cans Int.

DERNIER METAR :
  • 011300Z 10004KT 9999 FEW020 BKN100 27/23 Q1014

METARs EXPIRÉS :
  • 011200Z 13005KT 9999 FEW017 BKN080 26/23 Q1014

TAF TAF SBBE
Valide du 01 à 12h jusqu'au 02 à 12h UTC


010900Z 0112/0212 13006KT 9999 FEW025 TX29/0118Z TN23/0206Z
BECMG 0113/0115 FEW020 FEW025TCU
TEMPO 0115/0120 3000 TSRA SCT020 FEW025CB
BECMG 0122/0124 SCT020 RMK PEG
FIR SBAZ / Amérique du Sud



MET'MAP, la Météo Aéronautique d'un coup d'oeil ! - Copyright ORBIFLY Décembre 2007 - Disclaimer

ORBIFLY MET'MAP TEAM :

Programmation & Développement : Alexandra Zaïnal
Sur une idée originale de : Baudouin d'Aumeries
Assistance à la programmation : Marc-Olivier Méhu
Soutien technique & logistique : Manuel Goepfert

Contact : metmap@orbifly.com




SOURCES & CREDITS :

   NOAA